Time;durP1;ratioP1;P1;durP2;ratioP2;P2;SDS_P1;SDS_P2;PMS_P1;PMS_P2;Temp;Humidity;BMP_temperature;BMP_pressure;BME280_temperature;BME280_humidity;BME280_pressure;Samples;Min_cycle;Max_cycle;Signal;HPM_P1;HPM_P2
2021/07/31 00:00:44;;;;;;;12.13;7.10;;;16.40;99.90;;;;;;5145152;27;20201;-70
2021/07/31 00:03:31;;;;;;;16.07;7.70;;;16.40;99.90;;;;;;5138683;27;20208;-70
2021/07/31 00:06:19;;;;;;;19.47;7.27;;;16.40;99.90;;;;;;5141042;27;20737;-71
2021/07/31 00:09:06;;;;;;;11.27;6.90;;;16.40;99.90;;;;;;5138053;27;20186;-70
2021/07/31 00:11:55;;;;;;;14.33;6.80;;;16.40;99.90;;;;;;5131212;27;20277;-70
2021/07/31 00:14:43;;;;;;;12.07;7.20;;;16.40;99.90;;;;;;5131619;27;20193;-70
2021/07/31 00:17:30;;;;;;;12.27;7.00;;;16.40;99.90;;;;;;5132773;27;20557;-70
2021/07/31 00:20:18;;;;;;;9.93;6.50;;;16.50;99.90;;;;;;5131693;27;20197;-70
2021/07/31 00:23:06;;;;;;;10.23;6.53;;;16.50;99.90;;;;;;5131623;27;20197;-71
2021/07/31 00:25:53;;;;;;;9.63;6.90;;;16.40;99.90;;;;;;5133216;27;20204;-70
2021/07/31 00:28:42;;;;;;;11.03;7.13;;;16.40;99.90;;;;;;5133528;27;20196;-70
2021/07/31 00:31:30;;;;;;;10.07;6.80;;;16.40;99.90;;;;;;5139711;27;20673;-70
2021/07/31 00:34:17;;;;;;;13.50;7.10;;;16.40;99.90;;;;;;5140376;27;20211;-70
2021/07/31 00:37:05;;;;;;;9.30;6.13;;;16.40;99.90;;;;;;5141928;27;20309;-70
2021/07/31 00:39:53;;;;;;;12.70;6.93;;;16.40;99.90;;;;;;5142036;27;20217;-71
2021/07/31 00:42:41;;;;;;;11.70;7.03;;;16.40;99.90;;;;;;5143332;27;20198;-70
2021/07/31 00:45:30;;;;;;;14.43;7.97;;;16.40;99.90;;;;;;5147078;27;20211;-71
2021/07/31 00:48:18;;;;;;;15.87;7.90;;;16.40;99.90;;;;;;5137695;27;20194;-70
2021/07/31 00:51:06;;;;;;;16.27;7.43;;;16.40;99.90;;;;;;5141317;27;20200;-70
2021/07/31 00:53:53;;;;;;;11.50;7.57;;;16.30;99.90;;;;;;5131601;27;20211;-70
2021/07/31 00:56:41;;;;;;;10.63;6.73;;;16.30;99.90;;;;;;5144080;27;20277;-71
2021/07/31 00:59:29;;;;;;;10.03;6.70;;;16.30;99.90;;;;;;5141837;27;20214;-71
2021/07/31 01:02:18;;;;;;;11.83;6.90;;;16.30;99.90;;;;;;5139562;27;20209;-71
2021/07/31 01:05:06;;;;;;;13.27;7.03;;;16.30;99.90;;;;;;5151754;27;20649;-71
2021/07/31 01:07:53;;;;;;;9.27;6.40;;;16.30;99.90;;;;;;5136593;27;20509;-71
2021/07/31 01:10:41;;;;;;;10.87;6.70;;;16.30;99.90;;;;;;5150787;27;20275;-70
2021/07/31 01:13:28;;;;;;;12.07;6.90;;;16.30;99.90;;;;;;5135341;27;20197;-70
2021/07/31 01:16:16;;;;;;;9.77;6.80;;;16.30;99.90;;;;;;5139947;27;20209;-71
2021/07/31 01:19:05;;;;;;;12.07;7.23;;;16.40;99.90;;;;;;5143726;27;20212;-70
2021/07/31 01:21:54;;;;;;;11.90;6.97;;;16.30;99.90;;;;;;5133981;27;20199;-70
2021/07/31 01:24:42;;;;;;;10.23;6.90;;;16.30;99.90;;;;;;5135073;27;20739;-71
2021/07/31 01:27:29;;;;;;;10.63;7.00;;;16.30;99.90;;;;;;5135093;27;20205;-70
2021/07/31 01:30:17;;;;;;;11.27;6.70;;;16.30;99.90;;;;;;5134634;27;20236;-70
2021/07/31 01:33:04;;;;;;;10.80;7.03;;;16.30;99.90;;;;;;5134958;27;20210;-71
2021/07/31 01:35:52;;;;;;;12.13;7.27;;;16.30;99.90;;;;;;5134707;27;20689;-71
2021/07/31 01:38:41;;;;;;;13.30;7.50;;;16.30;99.90;;;;;;5134165;27;20217;-70
2021/07/31 01:41:28;;;;;;;14.57;7.30;;;16.30;99.90;;;;;;5134307;27;20208;-70
2021/07/31 01:44:16;;;;;;;12.83;7.30;;;16.20;99.90;;;;;;5146300;27;20212;-71
2021/07/31 01:47:04;;;;;;;14.80;7.07;;;16.30;99.90;;;;;;5146933;27;20300;-70
2021/07/31 01:49:51;;;;;;;13.77;7.33;;;16.20;99.90;;;;;;5137836;27;20265;-70
2021/07/31 01:52:39;;;;;;;13.60;7.07;;;16.20;99.90;;;;;;5141062;27;20198;-71
2021/07/31 01:55:28;;;;;;;9.93;7.07;;;16.20;99.90;;;;;;5145378;27;20221;-71
2021/07/31 01:58:16;;;;;;;14.33;7.87;;;16.20;99.90;;;;;;5144088;27;20234;-71
2021/07/31 02:01:03;;;;;;;16.33;7.13;;;16.20;99.90;;;;;;5152984;27;20198;-70
2021/07/31 02:03:51;;;;;;;12.13;7.27;;;16.20;99.90;;;;;;5147838;27;20564;-70
2021/07/31 02:06:38;;;;;;;11.80;7.30;;;16.20;99.90;;;;;;5143968;27;20201;-70
2021/07/31 02:09:26;;;;;;;12.13;7.60;;;16.20;99.90;;;;;;5146918;27;20192;-70
2021/07/31 02:12:15;;;;;;;17.23;7.53;;;16.20;99.90;;;;;;5142980;27;20205;-70
2021/07/31 02:15:02;;;;;;;12.83;7.57;;;16.10;99.90;;;;;;5141428;27;20200;-71
2021/07/31 02:17:50;;;;;;;13.50;7.03;;;16.20;99.90;;;;;;5146287;27;20658;-70
2021/07/31 02:20:38;;;;;;;12.10;6.97;;;16.10;99.90;;;;;;5136927;27;20218;-70
2021/07/31 02:23:25;;;;;;;12.23;6.97;;;16.20;99.90;;;;;;5137049;27;20222;-70
2021/07/31 02:26:13;;;;;;;13.60;7.27;;;16.20;99.90;;;;;;5135449;27;20209;-70
2021/07/31 02:29:02;;;;;;;16.47;6.93;;;16.20;99.90;;;;;;5137213;27;20196;-71
2021/07/31 02:31:50;;;;;;;15.37;7.40;;;16.20;99.90;;;;;;5144652;27;20211;-70
2021/07/31 02:34:38;;;;;;;11.83;6.87;;;16.20;99.90;;;;;;5136028;27;20205;-70
2021/07/31 02:37:25;;;;;;;15.03;7.07;;;16.20;99.90;;;;;;5149917;27;20198;-70
2021/07/31 02:40:13;;;;;;;13.20;6.73;;;16.20;99.90;;;;;;5151970;27;20219;-70
2021/07/31 02:43:10;;;;;;;12.23;6.87;;;16.20;99.90;;;;;;5146256;27;20222;-70
2021/07/31 02:46:03;;;;;;;16.30;6.87;;;16.20;99.90;;;;;;5128743;27;20214;-70
2021/07/31 02:48:51;;;;;;;10.30;6.97;;;16.30;99.90;;;;;;5141020;27;20360;-70
2021/07/31 02:51:39;;;;;;;10.20;6.87;;;16.30;99.90;;;;;;5142997;27;20553;-70
2021/07/31 02:54:26;;;;;;;11.40;6.93;;;16.30;99.90;;;;;;5139751;27;20362;-70
2021/07/31 02:57:14;;;;;;;13.43;7.13;;;16.30;99.90;;;;;;5143032;27;20199;-70
2021/07/31 03:00:01;;;;;;;11.37;7.40;;;16.40;99.90;;;;;;5147936;27;20214;-70
2021/07/31 03:03:38;;;;;;;11.90;7.13;;;16.40;99.90;;;;;;5136175;27;20201;-69
2021/07/31 03:06:27;;;;;;;12.90;7.20;;;16.40;99.90;;;;;;5146894;27;20250;-69
2021/07/31 03:09:15;;;;;;;12.37;7.30;;;16.40;99.90;;;;;;5144603;27;20226;-69
2021/07/31 03:12:03;;;;;;;11.50;7.83;;;16.40;99.90;;;;;;5141866;27;20208;-69
2021/07/31 03:14:50;;;;;;;10.47;6.73;;;16.50;99.90;;;;;;5134429;27;20234;-69
2021/07/31 03:17:38;;;;;;;13.43;6.80;;;16.50;99.90;;;;;;5133824;27;20194;-69
2021/07/31 03:20:26;;;;;;;11.13;6.90;;;16.40;99.90;;;;;;5143514;27;20682;-69
2021/07/31 03:23:15;;;;;;;15.33;7.10;;;16.40;99.90;;;;;;5133060;27;20199;-69
2021/07/31 03:26:02;;;;;;;13.70;7.00;;;16.30;99.90;;;;;;5136065;27;20626;-69
2021/07/31 03:28:50;;;;;;;11.63;6.70;;;16.40;99.90;;;;;;5133959;27;20648;-69
2021/07/31 03:31:37;;;;;;;13.47;7.60;;;16.40;99.90;;;;;;5133665;27;20203;-69
2021/07/31 03:34:25;;;;;;;10.70;7.10;;;16.50;99.90;;;;;;5138519;27;20286;-69
2021/07/31 03:37:12;;;;;;;12.43;6.83;;;16.50;99.90;;;;;;5144119;27;20266;-69
2021/07/31 03:40:02;;;;;;;9.60;6.80;;;16.70;99.90;;;;;;5139759;27;20291;-69
2021/07/31 03:42:49;;;;;;;10.07;6.77;;;16.80;99.90;;;;;;5142528;27;20211;-70
2021/07/31 03:45:38;;;;;;;11.67;7.13;;;16.90;99.90;;;;;;5141360;27;20760;-69
2021/07/31 03:48:25;;;;;;;11.03;7.23;;;17.00;99.90;;;;;;5131826;27;20205;-69
2021/07/31 03:51:13;;;;;;;10.43;7.07;;;17.00;99.90;;;;;;5132119;27;20757;-69
2021/07/31 03:54:00;;;;;;;10.77;7.07;;;17.10;99.90;;;;;;5132068;27;20248;-69
2021/07/31 03:56:49;;;;;;;18.00;7.00;;;17.20;99.90;;;;;;5130182;27;20683;-69
2021/07/31 03:59:37;;;;;;;11.33;7.03;;;17.30;99.90;;;;;;5143556;27;20350;-69
2021/07/31 04:02:24;;;;;;;11.63;7.37;;;17.40;99.90;;;;;;5143821;27;20199;-69
2021/07/31 04:05:12;;;;;;;9.47;6.97;;;17.50;99.90;;;;;;5137005;27;20692;-69
2021/07/31 04:07:59;;;;;;;12.47;6.43;;;17.60;99.90;;;;;;5137533;27;20229;-69
2021/07/31 04:10:47;;;;;;;9.80;6.73;;;17.70;99.90;;;;;;5145155;27;20504;-69
2021/07/31 04:13:36;;;;;;;10.67;6.70;;;17.80;99.90;;;;;;5148711;27;20281;-69
2021/07/31 04:16:23;;;;;;;12.13;6.60;;;17.90;99.90;;;;;;5139948;27;20198;-69
2021/07/31 04:19:11;;;;;;;11.00;6.83;;;17.90;99.90;;;;;;5145478;27;20204;-69
2021/07/31 04:21:59;;;;;;;15.63;6.60;;;18.00;99.90;;;;;;5143617;27;20227;-69
2021/07/31 04:24:47;;;;;;;9.77;6.43;;;18.10;99.90;;;;;;5142175;27;20539;-69
2021/07/31 04:27:34;;;;;;;14.87;6.00;;;18.10;99.90;;;;;;5139767;27;20194;-69
2021/07/31 04:30:24;;;;;;;12.07;6.30;;;18.20;99.90;;;;;;5140071;27;20208;-69
2021/07/31 04:33:11;;;;;;;12.13;6.23;;;18.30;99.90;;;;;;5146704;27;20733;-69
2021/07/31 04:35:59;;;;;;;8.83;6.50;;;18.50;99.90;;;;;;5132133;27;20240;-69
2021/07/31 04:38:47;;;;;;;12.83;6.43;;;18.60;99.90;;;;;;5146285;27;21079;-69
2021/07/31 04:41:37;;;;;;;9.57;6.73;;;18.80;99.90;;;;;;5138955;27;20193;-69
2021/07/31 04:44:24;;;;;;;8.50;6.33;;;19.00;99.90;;;;;;5146888;27;20200;-69
2021/07/31 04:47:13;;;;;;;8.90;6.40;;;19.20;99.90;;;;;;5147367;27;20854;-69
2021/07/31 04:50:01;;;;;;;10.60;6.47;;;19.40;99.90;;;;;;5142217;27;21031;-69
2021/07/31 04:52:48;;;;;;;12.00;6.40;;;19.60;99.90;;;;;;5138351;27;20251;-69
2021/07/31 04:55:36;;;;;;;9.47;6.77;;;19.70;99.90;;;;;;5142492;27;20341;-69
2021/07/31 04:58:23;;;;;;;14.97;6.27;;;19.90;99.90;;;;;;5146799;27;20232;-69
2021/07/31 05:01:11;;;;;;;9.60;5.80;;;20.00;99.90;;;;;;5144031;27;20687;-69
2021/07/31 05:04:00;;;;;;;9.43;6.17;;;20.20;99.90;;;;;;5144344;27;20216;-69
2021/07/31 05:06:48;;;;;;;10.87;6.43;;;20.40;99.90;;;;;;5147206;27;20209;-69
2021/07/31 05:09:35;;;;;;;11.83;6.73;;;20.50;99.90;;;;;;5154492;27;20190;-69
2021/07/31 05:12:23;;;;;;;9.60;6.50;;;20.60;99.90;;;;;;5144879;27;20828;-69
2021/07/31 05:15:11;;;;;;;11.33;5.90;;;20.60;99.90;;;;;;5135928;27;20568;-69
2021/07/31 05:17:59;;;;;;;8.30;6.00;;;20.70;99.90;;;;;;5135999;27;20202;-69
2021/07/31 05:20:47;;;;;;;9.07;6.10;;;20.80;99.90;;;;;;5139791;27;20213;-69
2021/07/31 05:23:35;;;;;;;11.50;6.70;;;21.00;99.90;;;;;;5145966;27;20202;-69
2021/07/31 05:26:23;;;;;;;8.80;6.33;;;21.00;99.90;;;;;;5152166;27;20198;-69
2021/07/31 05:29:11;;;;;;;7.73;5.67;;;21.10;99.90;;;;;;5146760;27;20199;-69
2021/07/31 05:31:59;;;;;;;9.23;5.97;;;21.10;99.90;;;;;;5137521;27;20199;-69
2021/07/31 05:34:46;;;;;;;10.50;6.00;;;21.20;99.90;;;;;;5146160;27;20202;-69
2021/07/31 05:37:35;;;;;;;7.77;5.80;;;21.20;99.90;;;;;;5143774;27;20711;-69
2021/07/31 05:40:23;;;;;;;12.07;5.90;;;21.20;99.90;;;;;;5144915;27;20221;-69
2021/07/31 05:43:11;;;;;;;8.80;5.73;;;21.30;99.90;;;;;;5143843;27;20199;-69
2021/07/31 05:45:58;;;;;;;8.53;5.50;;;21.20;99.90;;;;;;5143766;27;20790;-69
2021/07/31 05:48:46;;;;;;;10.73;6.27;;;21.30;99.90;;;;;;5138965;27;20194;-69
2021/07/31 05:51:33;;;;;;;15.17;6.77;;;21.20;99.90;;;;;;5152162;27;20683;-69
2021/07/31 05:54:22;;;;;;;10.03;6.63;;;21.20;99.90;;;;;;5152835;27;20201;-69
2021/07/31 05:57:10;;;;;;;15.83;7.30;;;21.10;99.90;;;;;;5134547;27;20197;-69
2021/07/31 05:59:57;;;;;;;11.00;6.63;;;21.10;99.90;;;;;;5133003;27;20215;-69
2021/07/31 06:02:45;;;;;;;14.20;7.30;;;21.10;99.90;;;;;;5133362;27;20202;-69
2021/07/31 06:05:33;;;;;;;9.87;7.13;;;21.00;99.90;;;;;;5143489;27;20198;-69
2021/07/31 06:08:20;;;;;;;12.60;7.47;;;20.90;99.90;;;;;;5138744;27;20202;-69
2021/07/31 06:11:09;;;;;;;13.60;7.97;;;20.90;99.90;;;;;;5132654;27;20198;-69
2021/07/31 06:13:57;;;;;;;11.47;7.40;;;20.80;99.90;;;;;;5133609;27;20653;-69
2021/07/31 06:16:45;;;;;;;15.53;8.30;;;20.80;99.90;;;;;;5133884;27;20206;-69
2021/07/31 06:19:33;;;;;;;13.87;7.63;;;20.80;99.90;;;;;;5133452;27;20285;-69
2021/07/31 06:22:21;;;;;;;13.50;8.13;;;20.90;99.90;;;;;;5139911;27;20194;-69
2021/07/31 06:25:09;;;;;;;14.33;8.33;;;21.00;99.90;;;;;;5133135;27;20195;-69
2021/07/31 06:27:58;;;;;;;11.83;7.17;;;21.10;99.90;;;;;;5132912;27;20191;-69
2021/07/31 06:30:46;;;;;;;15.53;8.50;;;21.20;99.90;;;;;;5133326;27;20216;-69
2021/07/31 06:33:33;;;;;;;13.20;8.07;;;21.30;99.90;;;;;;5133831;27;20206;-69
2021/07/31 06:36:21;;;;;;;17.03;8.37;;;21.40;99.90;;;;;;5138724;27;20194;-69
2021/07/31 06:39:09;;;;;;;12.63;8.33;;;21.50;99.90;;;;;;5133633;27;20202;-69
2021/07/31 06:41:56;;;;;;;15.00;8.10;;;21.50;99.90;;;;;;5134452;27;20225;-69
2021/07/31 06:44:46;;;;;;;11.30;7.73;;;21.50;99.90;;;;;;5146903;27;20198;-69
2021/07/31 06:47:33;;;;;;;12.87;7.93;;;21.60;99.90;;;;;;5150349;27;20237;-69
2021/07/31 06:50:21;;;;;;;14.03;8.20;;;21.60;99.90;;;;;;5152196;27;20197;-69
2021/07/31 06:53:09;;;;;;;13.27;8.50;;;21.50;99.90;;;;;;5145025;27;20194;-69
2021/07/31 06:55:59;;;;;;;12.70;7.33;;;21.60;99.90;;;;;;5137604;27;20660;-69
2021/07/31 06:58:46;;;;;;;17.00;8.17;;;21.70;99.90;;;;;;5150347;27;20234;-69
2021/07/31 07:01:36;;;;;;;13.33;7.47;;;21.60;99.90;;;;;;5140812;27;20213;-69
2021/07/31 07:04:23;;;;;;;14.50;7.43;;;21.70;99.90;;;;;;5141943;27;20210;-69
2021/07/31 07:07:11;;;;;;;17.23;7.93;;;21.70;99.90;;;;;;5131623;27;20533;-69
2021/07/31 07:09:59;;;;;;;12.00;7.80;;;21.80;99.90;;;;;;5132382;27;20203;-69
2021/07/31 07:12:46;;;;;;;15.67;8.10;;;21.80;99.90;;;;;;5132630;27;20209;-65
2021/07/31 07:15:34;;;;;;;10.70;7.27;;;21.80;99.90;;;;;;5132810;27;20206;-65
2021/07/31 07:18:23;;;;;;;12.43;8.00;;;21.80;99.90;;;;;;5132581;27;20198;-65
2021/07/31 07:21:11;;;;;;;13.07;6.83;;;21.90;99.90;;;;;;5137052;27;20218;-65
2021/07/31 07:23:59;;;;;;;19.57;7.30;;;21.90;99.90;;;;;;5152648;27;20766;-65
2021/07/31 07:26:46;;;;;;;14.27;7.40;;;21.90;99.90;;;;;;5141619;27;20237;-65
2021/07/31 07:29:34;;;;;;;12.13;6.87;;;22.10;99.90;;;;;;5139788;27;20591;-65
2021/07/31 07:32:21;;;;;;;11.20;7.23;;;22.30;99.90;;;;;;5141437;27;20521;-65
2021/07/31 07:35:11;;;;;;;15.43;7.30;;;22.30;99.90;;;;;;5138645;27;20197;-65
2021/07/31 07:37:59;;;;;;;10.70;6.73;;;22.30;99.90;;;;;;5137161;27;20249;-65
2021/07/31 07:40:47;;;;;;;13.63;7.23;;;22.40;99.90;;;;;;5142995;27;20222;-65
2021/07/31 07:43:34;;;;;;;14.23;7.20;;;22.30;99.90;;;;;;5134255;27;20715;-65
2021/07/31 07:46:22;;;;;;;9.60;6.60;;;22.30;99.90;;;;;;5140114;27;20581;-65
2021/07/31 07:49:09;;;;;;;11.77;7.60;;;22.30;99.90;;;;;;5150947;27;20205;-65
2021/07/31 07:51:58;;;;;;;11.93;7.43;;;22.30;99.90;;;;;;5144543;27;20807;-65
2021/07/31 07:54:46;;;;;;;16.37;7.07;;;22.30;99.90;;;;;;5129944;27;20202;-65
2021/07/31 07:57:34;;;;;;;13.53;6.73;;;22.20;99.90;;;;;;5131372;27;20221;-65
2021/07/31 08:00:22;;;;;;;10.70;6.77;;;22.20;99.90;;;;;;5133259;27;20249;-65
2021/07/31 08:03:09;;;;;;;12.53;7.87;;;22.20;99.90;;;;;;5133352;27;20867;-65
2021/07/31 08:05:57;;;;;;;14.50;7.50;;;22.30;99.90;;;;;;5138512;27;20189;-65
2021/07/31 08:08:46;;;;;;;13.80;7.37;;;22.30;99.90;;;;;;5146871;27;20271;-65
2021/07/31 08:11:34;;;;;;;11.83;7.30;;;22.30;99.90;;;;;;5138772;27;20210;-65
2021/07/31 08:14:21;;;;;;;18.47;7.40;;;22.30;99.90;;;;;;5144445;27;20202;-65
2021/07/31 08:17:09;;;;;;;12.53;7.67;;;22.20;99.90;;;;;;5145266;27;20568;-65
2021/07/31 08:19:56;;;;;;;13.17;7.93;;;22.20;99.90;;;;;;5135805;27;20199;-65
2021/07/31 08:22:44;;;;;;;11.90;7.93;;;22.20;99.90;;;;;;5146201;27;20205;-65
2021/07/31 08:25:33;;;;;;;13.93;7.50;;;22.20;99.90;;;;;;5131134;27;20579;-65
2021/07/31 08:28:20;;;;;;;16.10;7.90;;;22.20;99.90;;;;;;5131252;27;20247;-65
2021/07/31 08:31:09;;;;;;;10.33;7.20;;;22.20;99.90;;;;;;5131368;27;20264;-65
2021/07/31 08:33:56;;;;;;;14.03;7.03;;;22.30;99.90;;;;;;5140569;27;20201;-65
2021/07/31 08:36:44;;;;;;;10.23;7.03;;;22.30;99.90;;;;;;5133667;27;20209;-65
2021/07/31 08:39:31;;;;;;;9.47;6.90;;;22.40;99.90;;;;;;5142520;27;20219;-65
2021/07/31 08:42:20;;;;;;;10.20;6.50;;;22.40;99.90;;;;;;5137176;27;20266;-65
2021/07/31 08:45:11;;;;;;;10.47;6.40;;;22.40;99.90;;;;;;5143295;27;20227;-65
2021/07/31 08:47:59;;;;;;;13.67;6.97;;;22.40;99.90;;;;;;5148795;27;20209;-65
2021/07/31 08:50:47;;;;;;;8.37;6.73;;;22.20;99.90;;;;;;5138690;27;20611;-65
2021/07/31 08:53:34;;;;;;;11.10;6.90;;;22.10;99.90;;;;;;5141329;27;20280;-65
2021/07/31 08:56:22;;;;;;;10.73;7.00;;;22.10;99.90;;;;;;5144366;27;20205;-65
2021/07/31 08:59:11;;;;;;;9.20;6.60;;;22.20;99.90;;;;;;5141472;27;20273;-65
2021/07/31 09:01:59;;;;;;;9.70;6.13;;;22.20;99.90;;;;;;5136141;27;20807;-65
2021/07/31 09:04:46;;;;;;;10.03;6.47;;;22.30;99.90;;;;;;5139754;27;20198;-65
2021/07/31 09:07:34;;;;;;;8.80;6.17;;;22.20;99.90;;;;;;5138855;27;20216;-65
2021/07/31 09:10:25;;;;;;;8.40;5.73;;;22.20;99.90;;;;;;5135941;27;20214;-65
2021/07/31 09:13:13;;;;;;;8.40;4.97;;;22.20;99.90;;;;;;5131660;27;20202;-65
2021/07/31 09:16:10;;;;;;;7.40;4.90;;;22.30;99.90;;;;;;5132019;27;20936;-65
2021/07/31 09:19:04;;;;;;;6.53;5.17;;;22.20;99.90;;;;;;5137050;27;20202;-64
2021/07/31 09:21:51;;;;;;;6.10;4.77;;;22.30;99.90;;;;;;5140975;27;20218;-64
2021/07/31 09:24:39;;;;;;;6.63;4.97;;;22.50;99.90;;;;;;5144985;27;20331;-64
2021/07/31 09:27:27;;;;;;;6.43;4.93;;;22.60;99.90;;;;;;5132891;27;20199;-65
2021/07/31 09:30:14;;;;;;;8.90;5.10;;;22.70;99.90;;;;;;5140310;27;20582;-65
2021/07/31 09:33:05;;;;;;;7.73;5.17;;;22.90;99.90;;;;;;5136894;27;20198;-65
2021/07/31 09:36:01;;;;;;;7.10;5.20;;;23.10;99.90;;;;;;5139140;27;20213;-64
2021/07/31 09:38:50;;;;;;;7.63;5.20;;;23.40;99.90;;;;;;5141914;27;20198;-64
2021/07/31 09:41:37;;;;;;;7.50;5.30;;;23.60;99.90;;;;;;5144594;27;20252;-64
2021/07/31 09:44:25;;;;;;;7.90;5.33;;;23.70;99.90;;;;;;5142112;27;20275;-65
2021/07/31 09:47:13;;;;;;;8.03;5.00;;;24.00;99.90;;;;;;5140405;27;20715;-65
2021/07/31 09:50:02;;;;;;;7.97;4.90;;;24.10;99.90;;;;;;5144379;27;20233;-65
2021/07/31 09:52:49;;;;;;;6.33;4.63;;;24.20;99.90;;;;;;5146675;27;20258;-65
2021/07/31 09:55:38;;;;;;;6.37;4.97;;;24.20;99.90;;;;;;5138418;27;20193;-65
2021/07/31 09:58:26;;;;;;;6.07;4.87;;;24.30;99.90;;;;;;5140742;27;20234;-64
2021/07/31 10:01:14;;;;;;;5.90;4.60;;;24.60;99.90;;;;;;5138000;27;20214;-65
2021/07/31 10:04:01;;;;;;;5.43;4.10;;;24.70;99.90;;;;;;5141982;27;20209;-65
2021/07/31 10:06:51;;;;;;;5.35;3.97;;;24.70;99.90;;;;;;5133468;27;20194;-65
2021/07/31 10:09:41;;;;;;;5.40;3.90;;;24.70;99.90;;;;;;5137682;27;20193;-65
2021/07/31 10:12:31;;;;;;;5.78;4.07;;;24.80;99.90;;;;;;5138382;27;20190;-65
2021/07/31 10:15:18;;;;;;;5.40;3.80;;;24.70;99.90;;;;;;5142711;27;20227;-65
2021/07/31 10:18:10;;;;;;;16.85;4.80;;;24.80;99.90;;;;;;5146188;27;20657;-65
2021/07/31 10:21:05;;;;;;;4.75;3.75;;;24.90;99.90;;;;;;5140277;27;20195;-65
2021/07/31 10:24:04;;;;;;;7.40;3.65;;;24.90;99.90;;;;;;5145119;27;20209;-65
2021/07/31 10:27:20;;;;;;;6.63;3.80;;;25.00;99.90;;;;;;5150209;27;20190;-65
2021/07/31 10:30:26;;;;;;;5.03;4.00;;;24.90;99.90;;;;;;5136999;27;20226;-65
2021/07/31 10:33:43;;;;;;;5.60;3.72;;;25.10;99.90;;;;;;5153740;27;20193;-65
2021/07/31 10:36:32;;;;;;;4.97;3.85;;;25.20;99.90;;;;;;5135670;27;20286;-65
2021/07/31 10:39:44;;;;;;;5.70;4.00;;;25.20;99.90;;;;;;5144682;27;20256;-65
2021/07/31 10:42:55;;;;;;;7.35;4.40;;;25.20;99.90;;;;;;5134944;27;20355;-66
2021/07/31 10:45:42;;;;;;;5.07;3.92;;;25.20;99.90;;;;;;5143435;27;20218;-65
2021/07/31 10:48:35;;;;;;;5.30;4.35;;;25.20;99.90;;;;;;5143471;27;20671;-65
2021/07/31 10:51:42;;;;;;;5.47;4.65;;;25.30;99.90;;;;;;5146285;27;20193;-65
2021/07/31 10:55:02;;;;;;;8.20;4.60;;;25.50;99.90;;;;;;5138267;27;20198;-66
2021/07/31 10:58:07;;;;;;;7.97;4.72;;;25.80;99.90;;;;;;5132878;27;20584;-66
2021/07/31 11:01:19;;;;;;;5.50;4.45;;;25.90;99.90;;;;;;5134038;27;20285;-67
2021/07/31 11:04:06;;;;;;;10.32;5.15;;;26.10;99.90;;;;;;5133407;27;20202;-65
2021/07/31 11:07:10;;;;;;;5.57;4.60;;;26.30;99.90;;;;;;5132727;27;20653;-65
2021/07/31 11:10:46;;;;;;;18.85;5.10;;;26.10;99.90;;;;;;5140327;27;20203;-66
2021/07/31 11:13:51;;;;;;;5.00;4.07;;;26.10;99.90;;;;;;5067025;28;20242;-66
2021/07/31 11:16:39;;;;;;;6.90;4.30;;;26.30;99.90;;;;;;5064319;28;20201;-65
2021/07/31 11:19:33;;;;;;;6.90;4.82;;;26.20;99.90;;;;;;5069056;28;20779;-65
2021/07/31 11:22:20;;;;;;;7.78;4.65;;;26.50;99.90;;;;;;5070879;28;20330;-65
2021/07/31 11:25:09;;;;;;;6.75;4.63;;;26.50;99.90;;;;;;5068509;28;20200;-65
2021/07/31 11:27:59;;;;;;;21.10;5.25;;;26.30;99.90;;;;;;5070482;28;20192;-66
2021/07/31 11:30:47;;;;;;;11.73;5.50;;;26.30;99.90;;;;;;5066427;28;20213;-65
2021/07/31 11:33:35;;;;;;;6.43;5.10;;;26.60;99.90;;;;;;5070190;28;20212;-66
2021/07/31 11:36:23;;;;;;;8.27;5.25;;;26.70;99.90;;;;;;5068756;28;20205;-65
2021/07/31 11:39:11;;;;;;;6.28;4.97;;;26.60;99.90;;;;;;5063551;28;20208;-65
2021/07/31 11:41:58;;;;;;;6.57;4.88;;;26.70;99.90;;;;;;5069660;28;20217;-65
2021/07/31 11:44:48;;;;;;;9.43;5.57;;;26.90;99.90;;;;;;5048969;28;20212;-65
2021/07/31 11:47:35;;;;;;;8.02;5.57;;;27.00;99.90;;;;;;5049320;28;20646;-65
2021/07/31 11:50:23;;;;;;;6.88;5.50;;;27.10;99.90;;;;;;5107624;27;20202;-65
2021/07/31 11:53:23;;;;;;;8.75;5.65;;;27.30;99.90;;;;;;5132497;27;20684;-65
2021/07/31 11:56:15;;;;;;;9.82;6.03;;;27.50;99.90;;;;;;5131795;27;20270;-65
2021/07/31 11:59:02;;;;;;;7.88;5.65;;;27.40;99.90;;;;;;5131619;27;20245;-65
2021/07/31 12:01:53;;;;;;;7.35;4.90;;;27.30;99.90;;;;;;5132306;27;20210;-65
2021/07/31 12:04:46;;;;;;;7.53;5.32;;;27.30;99.90;;;;;;5130930;27;20266;-65
2021/07/31 12:07:34;;;;;;;9.70;5.40;;;27.40;99.90;;;;;;5131649;27;20233;-65
2021/07/31 12:10:21;;;;;;;6.68;4.97;;;27.50;99.90;;;;;;5139722;27;20197;-65
2021/07/31 12:13:10;;;;;;;7.22;4.53;;;27.60;99.90;;;;;;5135791;27;20246;-65
2021/07/31 12:15:59;;;;;;;6.68;4.63;;;27.70;99.90;;;;;;5139904;27;20195;-65
2021/07/31 12:18:54;;;;;;;7.28;4.90;;;27.60;99.90;;;;;;5132342;27;20203;-65
2021/07/31 12:21:42;;;;;;;6.22;4.40;;;27.40;99.90;;;;;;5131717;27;20198;-66
2021/07/31 12:24:30;;;;;;;7.75;4.80;;;27.40;99.90;;;;;;5131741;27;20726;-65
2021/07/31 12:27:17;;;;;;;6.55;4.80;;;27.40;99.90;;;;;;5148000;27;20556;-66
2021/07/31 12:30:22;;;;;;;5.75;4.80;;;27.40;99.90;;;;;;5133755;27;20637;-66
2021/07/31 12:33:17;;;;;;;7.68;4.88;;;27.60;99.90;;;;;;5131801;27;20198;-66
2021/07/31 12:36:06;;;;;;;5.63;4.78;;;27.90;99.90;;;;;;5132966;27;20202;-65
2021/07/31 12:38:54;;;;;;;6.93;5.40;;;28.00;99.90;;;;;;5139577;27;20248;-65
2021/07/31 12:41:42;;;;;;;7.88;5.03;;;27.80;99.90;;;;;;5150298;27;20193;-66
2021/07/31 12:44:30;;;;;;;7.28;5.13;;;28.40;99.90;;;;;;5132629;27;20198;-65
2021/07/31 12:47:18;;;;;;;6.57;4.68;;;28.70;99.90;;;;;;5141352;27;21708;-66
2021/07/31 12:50:06;;;;;;;11.60;5.55;;;29.10;99.90;;;;;;5147638;27;20202;-66
2021/07/31 12:52:56;;;;;;;7.68;5.00;;;29.60;99.90;;;;;;5149119;27;20190;-66
2021/07/31 12:55:44;;;;;;;12.10;5.10;;;29.90;99.90;;;;;;5137703;27;20194;-66
2021/07/31 12:58:31;;;;;;;7.13;5.38;;;30.00;99.90;;;;;;5142443;27;20227;-66
2021/07/31 13:01:19;;;;;;;6.93;5.30;;;29.60;99.90;;;;;;5142955;27;20235;-66
2021/07/31 13:04:07;;;;;;;7.00;4.85;;;29.40;99.90;;;;;;5153716;27;20663;-66
2021/07/31 13:06:55;;;;;;;6.20;4.95;;;29.20;99.90;;;;;;5138203;27;20199;-66
2021/07/31 13:09:44;;;;;;;11.85;5.28;;;29.20;99.90;;;;;;5137560;27;20637;-66
2021/07/31 13:12:32;;;;;;;6.82;5.32;;;30.10;99.90;;;;;;5152702;27;20182;-66
2021/07/31 13:15:20;;;;;;;7.65;5.22;;;30.90;99.90;;;;;;5142965;27;20195;-66
2021/07/31 13:18:09;;;;;;;7.05;5.65;;;30.60;99.90;;;;;;5152745;27;20202;-65
2021/07/31 13:20:57;;;;;;;7.20;5.07;;;29.80;99.90;;;;;;5135918;27;20570;-65
2021/07/31 13:23:45;;;;;;;7.07;4.78;;;29.90;99.90;;;;;;5136197;27;20222;-65
2021/07/31 13:26:34;;;;;;;8.02;4.50;;;30.20;99.90;;;;;;5135668;27;20207;-66
2021/07/31 13:29:21;;;;;;;6.63;5.45;;;30.50;99.90;;;;;;5148587;27;20198;-66
2021/07/31 13:32:09;;;;;;;5.38;4.47;;;30.80;99.90;;;;;;5137479;27;20191;-66
2021/07/31 13:34:57;;;;;;;11.13;4.75;;;30.70;99.90;;;;;;5136201;27;20198;-66
2021/07/31 13:37:47;;;;;;;8.55;5.13;;;30.40;99.90;;;;;;5146132;27;20198;-66
2021/07/31 13:40:46;;;;;;;5.57;4.70;;;30.40;99.90;;;;;;5155681;27;20219;-66
2021/07/31 13:43:38;;;;;;;5.93;4.60;;;30.40;99.90;;;;;;5143233;27;20246;-66
2021/07/31 13:46:25;;;;;;;5.82;4.68;;;30.20;99.90;;;;;;5144184;27;20218;-66
2021/07/31 13:49:14;;;;;;;6.80;4.70;;;29.90;99.90;;;;;;5134231;27;20209;-65
2021/07/31 13:52:03;;;;;;;6.22;5.10;;;29.10;99.90;;;;;;5134152;27;20277;-65
2021/07/31 13:54:50;;;;;;;7.57;5.13;;;28.60;99.90;;;;;;5143992;27;20190;-65
2021/07/31 13:57:40;;;;;;;5.47;4.63;;;28.30;99.90;;;;;;5138364;27;20226;-65
2021/07/31 14:00:29;;;;;;;5.90;4.78;;;28.30;99.90;;;;;;5135277;27;20199;-65
2021/07/31 14:03:16;;;;;;;6.07;4.80;;;28.40;99.90;;;;;;5134731;27;20676;-65
2021/07/31 14:06:04;;;;;;;5.85;4.88;;;28.10;99.90;;;;;;5138047;27;20197;-65
2021/07/31 14:08:52;;;;;;;6.50;5.28;;;27.70;99.90;;;;;;5154220;27;20278;-66
2021/07/31 14:11:41;;;;;;;6.10;4.72;;;27.10;99.90;;;;;;5145528;27;20257;-66
2021/07/31 14:14:28;;;;;;;6.22;4.95;;;26.90;99.90;;;;;;5134021;27;20206;-66
2021/07/31 14:17:18;;;;;;;12.70;5.63;;;26.70;99.90;;;;;;5135054;27;20206;-66
2021/07/31 14:20:07;;;;;;;9.20;5.28;;;26.50;99.90;;;;;;5144736;27;20650;-67
2021/07/31 14:22:55;;;;;;;5.95;4.82;;;26.20;99.90;;;;;;5139802;27;20214;-66
2021/07/31 14:25:43;;;;;;;7.28;5.53;;;26.10;99.90;;;;;;5135049;27;20194;-66
2021/07/31 14:28:31;;;;;;;7.15;4.50;;;25.80;99.90;;;;;;5133013;27;20549;-66
2021/07/31 14:31:19;;;;;;;11.38;5.47;;;25.70;99.90;;;;;;5137867;27;20555;-65
2021/07/31 14:34:08;;;;;;;17.33;5.30;;;25.50;99.90;;;;;;5133553;27;20280;-66